createdAt,value
2022-08-17T00:02:13.247Z,73.45
2022-08-17T00:04:51.557Z,73.57
2022-08-17T00:07:18.079Z,74.48
2022-08-17T00:09:44.877Z,75.48
2022-08-17T00:12:41.997Z,77.08
2022-08-17T00:14:57.931Z,76.31
2022-08-17T00:17:24.481Z,76.27
2022-08-17T00:19:51.048Z,76.06
2022-08-17T00:22:33.992Z,76.43
2022-08-17T00:25:07.363Z,76.51
2022-08-17T00:27:34.411Z,76.53
2022-08-17T00:30:00.963Z,77.14
2022-08-17T00:33:14.351Z,76.96
2022-08-17T00:35:17.639Z,77.39
2022-08-17T00:37:44.221Z,78.40
2022-08-17T00:40:13.672Z,77.78
2022-08-17T00:42:40.406Z,77.85
2022-08-17T00:45:09.369Z,77.58
2022-08-17T00:47:36.134Z,76.98
2022-08-17T00:50:04.678Z,76.74
2022-08-17T00:52:39.891Z,77.38
2022-08-17T00:55:08.580Z,77.19
2022-08-17T00:57:45.336Z,77.79
2022-08-17T01:00:17.592Z,77.47
2022-08-17T01:02:46.610Z,77.64
2022-08-17T01:05:25.547Z,77.95
2022-08-17T01:07:53.713Z,77.70
2022-08-17T01:11:00.532Z,77.95
2022-08-17T01:13:14.178Z,78.51
2022-08-17T01:15:46.564Z,79.12
2022-08-17T01:18:14.227Z,79.78
2022-08-17T01:20:52.651Z,80.14
2022-08-17T01:23:23.344Z,80.87
2022-08-17T01:25:54.326Z,81.11
2022-08-17T01:28:52.317Z,81.69
2022-08-17T01:31:09.615Z,82.41
2022-08-17T01:33:36.552Z,81.99
2022-08-17T01:36:04.283Z,82.41
2022-08-17T01:38:31.925Z,81.96
2022-08-17T01:41:03.688Z,82.42
2022-08-17T01:43:37.501Z,82.84
2022-08-17T01:46:04.268Z,83.08
2022-08-17T01:48:36.364Z,83.68
2022-08-17T01:51:05.868Z,83.13
2022-08-17T01:53:36.951Z,83.28
2022-08-17T01:56:10.402Z,83.85
2022-08-17T01:58:37.700Z,83.75
2022-08-17T02:01:05.994Z,84.21
2022-08-17T02:03:34.563Z,83.54
2022-08-17T02:06:02.290Z,83.66
2022-08-17T02:08:37.246Z,83.69
2022-08-17T02:11:12.260Z,83.21
2022-08-17T02:13:39.227Z,83.33
2022-08-17T02:16:06.120Z,84.11
2022-08-17T02:18:32.922Z,84.55
2022-08-17T02:20:59.561Z,83.99
2022-08-17T02:23:30.257Z,82.71
2022-08-17T02:25:59.583Z,82.34
2022-08-17T02:28:28.324Z,83.49
2022-08-17T02:31:01.045Z,83.68
2022-08-17T02:33:41.914Z,84.53
2022-08-17T02:36:11.606Z,84.82
2022-08-17T02:38:39.847Z,84.61
2022-08-17T02:41:07.459Z,84.99
2022-08-17T02:43:33.992Z,85.35
2022-08-17T02:46:00.596Z,84.35
2022-08-17T02:48:28.023Z,84.85
2022-08-17T02:50:57.452Z,84.74
2022-08-17T02:53:24.012Z,85.10
2022-08-17T02:55:52.488Z,85.77
2022-08-17T02:58:34.786Z,86.19
2022-08-17T03:01:08.140Z,85.83
2022-08-17T03:03:35.450Z,85.69
2022-08-17T03:06:02.416Z,86.98
2022-08-17T03:08:29.685Z,88.06
2022-08-17T03:10:56.641Z,89.05
2022-08-17T03:13:23.327Z,88.60
2022-08-17T03:15:50.578Z,88.08
2022-08-17T03:18:25.482Z,88.27
2022-08-17T03:20:58.840Z,88.09
2022-08-17T03:23:27.405Z,87.68
2022-08-17T03:25:54.598Z,87.39
2022-08-17T03:28:22.506Z,86.97
2022-08-17T03:30:49.451Z,87.01
2022-08-17T03:33:16.909Z,86.48
2022-08-17T03:35:44.150Z,87.17
2022-08-17T03:38:12.465Z,86.50
2022-08-17T03:40:56.388Z,85.03
2022-08-17T03:43:28.217Z,84.46
2022-08-17T03:46:28.248Z,83.42
2022-08-17T03:49:18.806Z,83.93
2022-08-17T03:52:03.962Z,84.13
2022-08-17T03:54:49.060Z,84.70
2022-08-17T03:57:16.395Z,84.09
2022-08-17T03:59:43.050Z,84.70
2022-08-17T04:02:15.828Z,84.04
2022-08-17T04:04:42.683Z,82.41
2022-08-17T04:07:09.800Z,79.39
2022-08-17T04:09:36.642Z,76.01
2022-08-17T04:12:05.118Z,76.83
2022-08-17T04:14:37.852Z,79.77
2022-08-17T04:17:19.760Z,83.60
2022-08-17T04:19:46.678Z,84.47
2022-08-17T04:22:32.478Z,84.21
2022-08-17T04:25:14.136Z,83.78
2022-08-17T04:27:40.672Z,83.43
2022-08-17T04:30:07.898Z,83.98
2022-08-17T04:33:03.813Z,83.47
2022-08-17T04:35:36.997Z,82.81
2022-08-17T04:38:04.385Z,82.55
2022-08-17T04:40:49.618Z,81.05
2022-08-17T04:43:19.816Z,79.89
2022-08-17T04:45:57.699Z,79.25
2022-08-17T04:48:37.541Z,78.68
2022-08-17T04:51:11.080Z,78.99
2022-08-17T04:53:39.362Z,79.10
2022-08-17T04:56:06.263Z,79.24
2022-08-17T04:58:33.043Z,78.85
2022-08-17T05:01:00.087Z,78.44
2022-08-17T05:03:26.902Z,78.14
2022-08-17T05:05:53.742Z,78.33
2022-08-17T05:08:20.932Z,78.79
2022-08-17T05:10:48.715Z,79.00
2022-08-17T05:13:22.863Z,78.27
2022-08-17T05:15:54.889Z,78.04
2022-08-17T05:18:21.845Z,78.00
2022-08-17T05:20:51.150Z,76.57
2022-08-17T05:23:21.744Z,77.05
2022-08-17T05:25:51.277Z,76.72
2022-08-17T05:28:23.476Z,76.90
2022-08-17T05:30:59.227Z,76.01
2022-08-17T05:33:30.023Z,75.95
2022-08-17T05:35:58.777Z,72.83
2022-08-17T05:38:27.714Z,71.04
2022-08-17T05:40:55.239Z,69.59
2022-08-17T05:43:34.487Z,67.50
2022-08-17T05:46:20.394Z,64.87
2022-08-17T05:48:54.065Z,63.21
2022-08-17T05:51:44.895Z,63.56
2022-08-17T05:54:26.760Z,63.86
2022-08-17T05:57:11.553Z,63.06
2022-08-17T05:59:48.229Z,63.37
2022-08-17T06:02:36.560Z,62.44
2022-08-17T06:05:06.233Z,60.74
2022-08-17T06:07:38.893Z,59.28
2022-08-17T06:10:08.167Z,56.28
2022-08-17T06:13:02.708Z,52.48
2022-08-17T06:16:33.359Z,51.00
2022-08-17T06:19:03.203Z,48.77
2022-08-17T06:21:43.724Z,48.56
2022-08-17T06:24:28.790Z,48.84
2022-08-17T06:27:06.719Z,49.70
2022-08-17T06:29:35.407Z,53.16
2022-08-17T06:32:03.159Z,53.60
2022-08-17T06:34:29.901Z,50.05
2022-08-17T06:37:25.532Z,49.82
2022-08-17T06:40:15.823Z,50.78
2022-08-17T06:43:32.595Z,50.43
2022-08-17T06:46:11.415Z,48.82
2022-08-17T06:48:47.179Z,49.32
2022-08-17T06:51:19.682Z,50.66
2022-08-17T06:54:00.116Z,50.56
2022-08-17T06:56:54.532Z,50.66
2022-08-17T06:59:56.159Z,50.57
2022-08-17T07:03:02.377Z,49.72
2022-08-17T07:05:22.343Z,49.00
2022-08-17T07:08:03.066Z,49.18
2022-08-17T07:10:38.121Z,49.15
2022-08-17T07:13:37.480Z,48.48
2022-08-17T07:16:16.668Z,47.14
2022-08-17T07:18:44.089Z,48.70
2022-08-17T07:21:26.561Z,48.26
2022-08-17T07:24:06.886Z,46.22
2022-08-17T07:26:33.619Z,47.06
2022-08-17T07:29:01.022Z,48.23
2022-08-17T07:31:30.561Z,46.77
2022-08-17T07:34:06.760Z,46.52
2022-08-17T07:36:34.363Z,45.21
2022-08-17T07:39:03.064Z,47.27
2022-08-17T07:41:53.122Z,46.15
2022-08-17T07:44:23.283Z,44.92
2022-08-17T07:47:12.270Z,44.89
2022-08-17T07:49:46.886Z,45.26
2022-08-17T07:52:51.345Z,46.72
2022-08-17T07:55:29.365Z,46.04
2022-08-17T07:57:58.791Z,47.08
2022-08-17T08:00:32.180Z,45.06
2022-08-17T08:03:34.014Z,46.50
2022-08-17T08:06:03.063Z,45.72
2022-08-17T08:08:43.641Z,45.57
2022-08-17T08:11:15.465Z,45.99
2022-08-17T08:13:45.396Z,44.95
2022-08-17T08:16:12.106Z,45.25
2022-08-17T08:18:55.351Z,46.04
2022-08-17T08:21:52.123Z,46.40
2022-08-17T08:24:55.879Z,45.93
2022-08-17T08:27:31.050Z,45.08
2022-08-17T08:30:07.210Z,44.77
2022-08-17T08:32:48.579Z,44.83
2022-08-17T08:35:33.808Z,44.21
2022-08-17T08:38:12.160Z,45.13
2022-08-17T08:41:16.175Z,45.69
2022-08-17T08:44:10.850Z,43.53
2022-08-17T08:46:40.659Z,43.89
2022-08-17T08:50:03.002Z,42.72
2022-08-17T08:52:45.082Z,44.27
2022-08-17T08:55:22.322Z,43.58
2022-08-17T08:57:57.768Z,43.99
2022-08-17T09:00:26.436Z,44.29
2022-08-17T09:03:51.219Z,44.61
2022-08-17T09:06:32.132Z,44.34
2022-08-17T09:09:22.847Z,43.96
2022-08-17T09:12:16.844Z,46.04
2022-08-17T09:15:17.736Z,44.59
2022-08-17T09:19:03.544Z,44.34
2022-08-17T09:21:18.195Z,43.15
2022-08-17T09:24:00.137Z,43.74
2022-08-17T09:26:54.461Z,44.27
2022-08-17T09:29:25.495Z,44.06
2022-08-17T09:32:03.577Z,43.25
2022-08-17T09:34:36.221Z,42.91
2022-08-17T09:37:07.896Z,41.88
2022-08-17T09:39:44.902Z,41.62
2022-08-17T09:42:19.849Z,42.63
2022-08-17T09:45:00.911Z,42.43
2022-08-17T09:47:29.890Z,41.94
2022-08-17T09:50:01.696Z,41.60
2022-08-17T09:52:30.479Z,43.08
2022-08-17T09:54:59.435Z,42.66
2022-08-17T09:58:12.171Z,42.89
2022-08-17T10:00:53.122Z,43.13
2022-08-17T10:03:19.831Z,42.63
2022-08-17T10:06:06.824Z,42.35
2022-08-17T10:08:43.864Z,42.81
2022-08-17T10:11:48.159Z,42.62
2022-08-17T10:14:38.013Z,42.98
2022-08-17T10:17:16.579Z,43.10
2022-08-17T10:20:12.335Z,42.06
2022-08-17T10:23:14.972Z,42.23
2022-08-17T10:26:04.981Z,42.27
2022-08-17T10:28:39.763Z,42.46
2022-08-17T10:34:02.175Z,42.71
2022-08-17T10:36:55.651Z,42.63
2022-08-17T10:39:54.723Z,41.74
2022-08-17T10:42:30.869Z,41.89
2022-08-17T10:45:18.183Z,42.58
2022-08-17T10:48:04.766Z,42.93
2022-08-17T10:50:59.805Z,41.57
2022-08-17T10:53:32.518Z,41.89
2022-08-17T10:56:14.139Z,41.89
2022-08-17T10:58:58.951Z,42.30
2022-08-17T11:01:34.490Z,41.74
2022-08-17T11:04:21.184Z,42.81
2022-08-17T11:07:17.681Z,42.88
2022-08-17T11:10:05.896Z,42.34
2022-08-17T11:12:55.210Z,42.37
2022-08-17T11:15:41.250Z,41.40
2022-08-17T11:18:14.490Z,40.31
2022-08-17T11:21:20.411Z,41.49
2022-08-17T11:24:11.980Z,39.77
2022-08-17T11:26:46.222Z,39.34
2022-08-17T11:29:27.486Z,40.62
2022-08-17T11:32:07.812Z,40.63
2022-08-17T11:34:39.999Z,40.66
2022-08-17T11:37:38.811Z,40.12
2022-08-17T11:40:29.848Z,39.69
2022-08-17T11:43:05.387Z,41.81
2022-08-17T11:46:07.159Z,39.41
2022-08-17T11:49:21.533Z,40.62
2022-08-17T11:52:01.188Z,39.94
2022-08-17T11:54:33.634Z,41.25
2022-08-17T11:57:26.374Z,41.91
2022-08-17T12:00:11.884Z,41.38
2022-08-17T12:02:48.217Z,41.41
2022-08-17T12:05:17.994Z,40.94
2022-08-17T12:08:12.885Z,40.40
2022-08-17T12:10:51.892Z,39.84
2022-08-17T12:13:19.395Z,39.56
2022-08-17T12:15:50.553Z,40.05
2022-08-17T12:18:25.239Z,40.31
2022-08-17T12:21:17.680Z,41.08
2022-08-17T12:24:05.274Z,40.26
2022-08-17T12:26:34.583Z,41.18
2022-08-17T12:29:38.868Z,40.10
2022-08-17T12:31:55.733Z,40.28
2022-08-17T12:34:43.341Z,41.20
2022-08-17T12:37:27.474Z,41.08
2022-08-17T12:39:58.720Z,39.78
2022-08-17T12:42:32.139Z,40.11
2022-08-17T12:44:58.979Z,40.23
2022-08-17T12:47:26.582Z,39.67
2022-08-17T12:50:29.485Z,39.53
2022-08-17T12:53:01.751Z,40.73
2022-08-17T12:55:32.683Z,41.34
2022-08-17T12:58:01.863Z,42.46
2022-08-17T13:00:41.115Z,42.42
2022-08-17T13:03:21.184Z,41.24
2022-08-17T13:06:02.796Z,41.99
2022-08-17T13:08:29.265Z,42.60
2022-08-17T13:11:05.139Z,41.95
2022-08-17T13:13:35.665Z,42.83
2022-08-17T13:16:12.761Z,42.06
2022-08-17T13:18:44.394Z,42.32
2022-08-17T13:21:19.494Z,42.48
2022-08-17T13:24:19.700Z,43.71
2022-08-17T13:26:46.172Z,43.61
2022-08-17T13:29:37.077Z,43.92
2022-08-17T13:32:13.147Z,43.46
2022-08-17T13:35:28.246Z,43.26
2022-08-17T13:38:05.000Z,43.58
2022-08-17T13:40:38.013Z,43.49
2022-08-17T13:43:05.328Z,43.16
2022-08-17T13:45:39.248Z,43.22
2022-08-17T13:48:16.558Z,43.29
2022-08-17T13:50:43.117Z,42.68
2022-08-17T13:53:23.123Z,43.49
2022-08-17T13:55:58.321Z,43.58
2022-08-17T13:58:51.966Z,43.67
2022-08-17T14:01:53.590Z,42.62
2022-08-17T14:04:28.087Z,42.93
2022-08-17T14:06:57.051Z,43.10
2022-08-17T14:09:28.083Z,43.57
2022-08-17T14:11:57.053Z,43.17
2022-08-17T14:14:24.673Z,42.91
2022-08-17T14:16:53.027Z,44.39
2022-08-17T14:19:21.889Z,46.20
2022-08-17T14:21:49.213Z,48.30
2022-08-17T14:24:31.483Z,50.01
2022-08-17T14:26:59.818Z,51.02
2022-08-17T14:29:29.645Z,50.43
2022-08-17T14:31:57.040Z,52.24
2022-08-17T14:34:24.781Z,52.11
2022-08-17T14:36:52.317Z,51.69
2022-08-17T14:39:19.841Z,51.59
2022-08-17T14:41:46.719Z,51.68
2022-08-17T14:44:13.411Z,51.04
2022-08-17T14:46:41.710Z,51.52
2022-08-17T14:49:11.710Z,51.78
2022-08-17T14:51:44.066Z,52.24
2022-08-17T14:54:32.776Z,51.65
2022-08-17T14:57:23.322Z,52.99
2022-08-17T14:59:46.778Z,53.07
2022-08-17T15:02:13.657Z,52.84
2022-08-17T15:04:45.346Z,53.42
2022-08-17T15:07:12.269Z,53.84
2022-08-17T15:09:39.045Z,54.13
2022-08-17T15:12:09.161Z,54.60
2022-08-17T15:14:36.271Z,54.26
2022-08-17T15:17:03.717Z,54.41
2022-08-17T15:19:30.302Z,54.05
2022-08-17T15:21:57.032Z,54.84
2022-08-17T15:24:23.586Z,56.04
2022-08-17T15:26:50.199Z,55.13
2022-08-17T15:29:16.970Z,57.14
2022-08-17T15:31:43.729Z,56.68
2022-08-17T15:34:10.300Z,57.39
2022-08-17T15:36:37.046Z,56.32
2022-08-17T15:39:05.403Z,57.14
2022-08-17T15:41:32.038Z,55.56
2022-08-17T15:43:58.673Z,56.31
2022-08-17T15:46:26.286Z,56.29
2022-08-17T15:48:58.155Z,56.24
2022-08-17T15:51:26.397Z,56.51
2022-08-17T15:54:04.581Z,57.04
2022-08-17T15:56:48.600Z,57.01
2022-08-17T15:59:15.355Z,56.63
2022-08-17T16:03:01.456Z,57.44
2022-08-17T16:04:30.718Z,57.80
2022-08-17T16:06:58.855Z,57.59
2022-08-17T16:09:25.339Z,59.41
2022-08-17T16:11:55.380Z,59.60
2022-08-17T16:14:22.618Z,59.44
2022-08-17T16:16:50.561Z,59.65
2022-08-17T16:19:17.246Z,59.26
2022-08-17T16:21:43.779Z,59.93
2022-08-17T16:24:13.213Z,59.72
2022-08-17T16:26:40.930Z,60.04
2022-08-17T16:29:08.116Z,59.63
2022-08-17T16:31:36.139Z,59.93
2022-08-17T16:34:15.889Z,59.18
2022-08-17T16:36:51.770Z,59.58
2022-08-17T16:39:29.019Z,59.09
2022-08-17T16:41:56.465Z,60.43
2022-08-17T16:44:23.517Z,61.83
2022-08-17T16:46:50.443Z,64.51
2022-08-17T16:49:35.992Z,68.25
2022-08-17T17:04:12.863Z,100.00
2022-08-17T17:07:06.030Z,100.00
2022-08-17T17:09:38.235Z,100.00
2022-08-17T17:12:10.839Z,100.00
2022-08-17T17:14:44.854Z,100.00
2022-08-17T17:17:29.825Z,100.00
2022-08-17T17:20:09.823Z,100.00
2022-08-17T17:23:00.455Z,100.00
2022-08-17T17:25:45.299Z,100.00
2022-08-17T17:28:30.082Z,100.00
2022-08-17T17:31:18.568Z,100.00
2022-08-17T17:33:48.994Z,100.00
2022-08-17T17:36:40.292Z,100.00
2022-08-17T17:39:15.551Z,100.00
2022-08-17T17:41:51.278Z,100.00
2022-08-17T17:44:23.631Z,100.00
2022-08-17T17:46:57.476Z,88.73
2022-08-17T17:49:28.662Z,81.51
2022-08-17T17:52:14.262Z,86.07
2022-08-17T17:55:05.054Z,87.15
2022-08-17T17:57:54.476Z,85.01
2022-08-17T18:00:23.544Z,89.48
2022-08-17T18:03:15.184Z,86.28
2022-08-17T18:05:58.180Z,86.91
2022-08-17T18:08:55.574Z,88.25
2022-08-17T18:11:35.114Z,89.76
2022-08-17T18:14:21.077Z,92.40
2022-08-17T18:16:55.007Z,91.78
2022-08-17T18:19:25.082Z,92.93
2022-08-17T18:22:02.877Z,88.70
2022-08-17T18:24:36.187Z,90.95
2022-08-17T18:27:21.073Z,87.08
2022-08-17T18:29:48.880Z,85.57
2022-08-17T18:32:22.446Z,86.00
2022-08-17T18:34:59.423Z,87.21
2022-08-17T18:37:49.316Z,86.71
2022-08-17T18:40:21.604Z,87.23
2022-08-17T18:43:00.421Z,84.15
2022-08-17T18:45:39.012Z,85.64
2022-08-17T18:48:22.556Z,89.09
2022-08-17T18:50:51.385Z,83.44
2022-08-17T18:53:33.537Z,84.50
2022-08-17T18:56:22.014Z,84.71
2022-08-17T18:59:18.255Z,82.43
2022-08-17T19:01:53.218Z,88.15
2022-08-17T19:04:37.439Z,93.03
2022-08-17T19:07:21.889Z,95.43
2022-08-17T19:09:59.622Z,94.96
2022-08-17T19:12:42.835Z,86.25
2022-08-17T19:15:12.441Z,89.96
2022-08-17T19:17:48.302Z,93.18
2022-08-17T19:20:22.651Z,90.18
2022-08-17T19:22:56.385Z,91.31
2022-08-17T19:25:36.145Z,87.53
2022-08-17T19:28:21.488Z,84.42
2022-08-17T19:30:49.410Z,86.35
2022-08-17T19:33:17.951Z,89.13
2022-08-17T19:36:08.539Z,88.37
2022-08-17T19:38:45.728Z,86.70
2022-08-17T19:41:22.739Z,88.36
2022-08-17T19:43:58.237Z,87.00
2022-08-17T19:46:49.912Z,88.33
2022-08-17T19:49:40.710Z,87.75
2022-08-17T19:52:26.285Z,87.13
2022-08-17T19:55:31.701Z,90.99
2022-08-17T19:58:07.553Z,92.12
2022-08-17T20:00:47.852Z,89.58
2022-08-17T20:03:20.285Z,91.84
2022-08-17T20:06:11.312Z,93.87
2022-08-17T20:08:41.138Z,89.87
2022-08-17T20:11:15.254Z,91.88
2022-08-17T20:13:49.025Z,90.38
2022-08-17T20:16:18.200Z,90.14
2022-08-17T20:18:53.583Z,90.62
2022-08-17T20:21:34.106Z,89.73
2022-08-17T20:24:20.272Z,90.55
2022-08-17T20:26:58.942Z,91.94
2022-08-17T20:29:39.760Z,91.42
2022-08-17T20:32:32.994Z,91.83
2022-08-17T20:35:18.135Z,93.07
2022-08-17T20:38:12.221Z,89.44
2022-08-17T20:40:53.795Z,90.09
2022-08-17T20:43:49.009Z,89.61
2022-08-17T20:46:30.430Z,89.48
2022-08-17T20:49:14.632Z,90.07
2022-08-17T20:52:01.245Z,89.72
2022-08-17T20:54:49.842Z,90.38
2022-08-17T20:57:31.872Z,85.40
2022-08-17T21:00:15.998Z,83.46
2022-08-17T21:02:49.569Z,87.58
2022-08-17T21:05:30.229Z,89.24
2022-08-17T21:08:00.890Z,88.70
2022-08-17T21:10:27.332Z,88.32
2022-08-17T21:13:13.271Z,87.43
2022-08-17T21:15:54.872Z,85.90
2022-08-17T21:18:56.591Z,86.19
2022-08-17T21:21:48.429Z,86.51
2022-08-17T21:24:36.634Z,87.59
2022-08-17T21:27:12.288Z,89.14
2022-08-17T21:30:10.033Z,86.06
2022-08-17T21:32:40.410Z,84.74
2022-08-17T21:35:12.319Z,84.88
2022-08-17T21:37:39.201Z,85.46
2022-08-17T21:40:18.329Z,85.89
2022-08-17T21:42:48.683Z,86.56
2022-08-17T21:45:24.238Z,85.07
2022-08-17T21:48:07.351Z,90.25
2022-08-17T21:50:35.613Z,89.69
2022-08-17T21:53:04.296Z,87.09
2022-08-17T21:55:32.780Z,86.17
2022-08-17T21:58:14.846Z,85.16
2022-08-17T22:00:44.484Z,91.86
2022-08-17T22:03:23.810Z,88.44
2022-08-17T22:05:51.473Z,85.28
2022-08-17T22:08:21.826Z,86.18
2022-08-17T22:10:51.146Z,86.13
2022-08-17T22:13:17.834Z,88.86
2022-08-17T22:16:28.164Z,90.23
2022-08-17T22:18:53.821Z,91.08
2022-08-17T22:21:22.559Z,91.55
2022-08-17T22:24:14.853Z,90.50
2022-08-17T22:27:01.447Z,91.72
2022-08-17T22:29:43.379Z,91.29
2022-08-17T22:32:10.508Z,89.55
2022-08-17T22:34:38.470Z,90.09
2022-08-17T22:37:27.969Z,88.84
2022-08-17T22:39:59.166Z,88.56
2022-08-17T22:42:25.850Z,88.88
2022-08-17T22:44:54.404Z,88.62
2022-08-17T22:47:40.850Z,87.88
2022-08-17T22:50:25.333Z,88.24
2022-08-17T22:53:22.763Z,87.64
2022-08-17T22:56:14.652Z,89.15
2022-08-17T22:59:11.104Z,88.99
2022-08-17T23:01:39.080Z,86.71
2022-08-17T23:04:07.433Z,87.91
2022-08-17T23:06:36.480Z,88.02
2022-08-17T23:09:05.876Z,88.43
2022-08-17T23:11:47.839Z,90.05
2022-08-17T23:14:19.226Z,91.17
2022-08-17T23:16:46.972Z,91.90
2022-08-17T23:19:18.526Z,92.66
2022-08-17T23:21:45.114Z,93.50
2022-08-17T23:24:17.017Z,92.83
2022-08-17T23:26:43.583Z,93.76
2022-08-17T23:29:10.101Z,93.68
2022-08-17T23:31:38.581Z,91.87
2022-08-17T23:34:10.210Z,88.40
2022-08-17T23:36:36.690Z,80.94
2022-08-17T23:39:04.856Z,82.10
2022-08-17T23:41:40.019Z,84.84
2022-08-17T23:44:07.310Z,87.56
2022-08-17T23:46:34.615Z,90.70
2022-08-17T23:49:01.423Z,90.97
2022-08-17T23:51:31.848Z,92.76
2022-08-17T23:54:09.352Z,93.81
2022-08-17T23:56:45.320Z,93.71
2022-08-17T23:59:13.499Z,94.27
